sensor_id;sensor_type;location;lat;lon;timestamp;temperature;humidity
52965;DHT22;42923;53.220;6.528;2023-04-24T00:00:02;10.60;99.90
52965;DHT22;42923;53.220;6.528;2023-04-24T00:02:31;10.50;99.90
52965;DHT22;42923;53.220;6.528;2023-04-24T00:04:58;10.50;99.90
52965;DHT22;42923;53.220;6.528;2023-04-24T00:07:28;10.50;99.90
52965;DHT22;42923;53.220;6.528;2023-04-24T00:09:54;10.40;99.90
52965;DHT22;42923;53.220;6.528;2023-04-24T00:12:20;10.40;99.90
52965;DHT22;42923;53.220;6.528;2023-04-24T00:14:46;10.40;99.90
52965;DHT22;42923;53.220;6.528;2023-04-24T00:17:12;10.40;99.90
52965;DHT22;42923;53.220;6.528;2023-04-24T00:19:38;10.30;99.90
52965;DHT22;42923;53.220;6.528;2023-04-24T00:22:03;10.40;99.90
52965;DHT22;42923;53.220;6.528;2023-04-24T00:24:29;10.40;99.90
52965;DHT22;42923;53.220;6.528;2023-04-24T00:26:55;10.40;99.90
52965;DHT22;42923;53.220;6.528;2023-04-24T00:29:21;10.40;99.90
52965;DHT22;42923;53.220;6.528;2023-04-24T00:31:47;10.40;99.90
52965;DHT22;42923;53.220;6.528;2023-04-24T00:34:13;10.40;99.90
52965;DHT22;42923;53.220;6.528;2023-04-24T00:36:39;10.40;99.90
52965;DHT22;42923;53.220;6.528;2023-04-24T00:39:04;10.40;99.90
52965;DHT22;42923;53.220;6.528;2023-04-24T00:41:31;10.40;99.90
52965;DHT22;42923;53.220;6.528;2023-04-24T00:43:57;10.40;99.90
52965;DHT22;42923;53.220;6.528;2023-04-24T00:46:22;10.40;99.90
52965;DHT22;42923;53.220;6.528;2023-04-24T00:48:48;10.40;99.90
52965;DHT22;42923;53.220;6.528;2023-04-24T00:51:14;10.40;99.90
52965;DHT22;42923;53.220;6.528;2023-04-24T00:53:40;10.40;99.90
52965;DHT22;42923;53.220;6.528;2023-04-24T00:56:05;10.30;99.90
52965;DHT22;42923;53.220;6.528;2023-04-24T00:58:31;10.20;99.90
52965;DHT22;42923;53.220;6.528;2023-04-24T01:00:58;10.10;99.90
52965;DHT22;42923;53.220;6.528;2023-04-24T01:03:29;10.10;99.90
52965;DHT22;42923;53.220;6.528;2023-04-24T01:05:56;10.00;99.90
52965;DHT22;42923;53.220;6.528;2023-04-24T01:08:24;10.00;99.90
52965;DHT22;42923;53.220;6.528;2023-04-24T01:10:53;9.90;99.90
52965;DHT22;42923;53.220;6.528;2023-04-24T01:13:20;9.90;99.90
52965;DHT22;42923;53.220;6.528;2023-04-24T01:15:46;9.80;99.90
52965;DHT22;42923;53.220;6.528;2023-04-24T01:18:13;9.80;99.90
52965;DHT22;42923;53.220;6.528;2023-04-24T01:20:42;9.80;99.90
52965;DHT22;42923;53.220;6.528;2023-04-24T01:23:09;9.80;99.90
52965;DHT22;42923;53.220;6.528;2023-04-24T01:25:36;9.80;99.90
52965;DHT22;42923;53.220;6.528;2023-04-24T01:28:03;9.80;99.90
52965;DHT22;42923;53.220;6.528;2023-04-24T01:30:31;9.80;99.90
52965;DHT22;42923;53.220;6.528;2023-04-24T01:32:58;9.80;99.90
52965;DHT22;42923;53.220;6.528;2023-04-24T01:35:24;9.70;99.90
52965;DHT22;42923;53.220;6.528;2023-04-24T01:37:51;9.70;99.90
52965;DHT22;42923;53.220;6.528;2023-04-24T01:40:16;9.80;99.90
52965;DHT22;42923;53.220;6.528;2023-04-24T01:42:42;9.70;99.90
52965;DHT22;42923;53.220;6.528;2023-04-24T01:45:11;9.70;99.90
52965;DHT22;42923;53.220;6.528;2023-04-24T01:47:37;9.70;99.90
52965;DHT22;42923;53.220;6.528;2023-04-24T01:50:04;9.70;99.90
52965;DHT22;42923;53.220;6.528;2023-04-24T01:52:31;9.70;99.90
52965;DHT22;42923;53.220;6.528;2023-04-24T01:55:02;9.70;99.90
52965;DHT22;42923;53.220;6.528;2023-04-24T01:57:30;9.70;99.90
52965;DHT22;42923;53.220;6.528;2023-04-24T01:59:56;9.70;99.90
52965;DHT22;42923;53.220;6.528;2023-04-24T02:02:22;9.70;99.90
52965;DHT22;42923;53.220;6.528;2023-04-24T02:04:55;9.70;99.90
52965;DHT22;42923;53.220;6.528;2023-04-24T02:07:21;9.70;99.90
52965;DHT22;42923;53.220;6.528;2023-04-24T02:09:47;9.70;99.90
52965;DHT22;42923;53.220;6.528;2023-04-24T02:12:13;9.70;99.90
52965;DHT22;42923;53.220;6.528;2023-04-24T02:14:39;9.70;99.90
52965;DHT22;42923;53.220;6.528;2023-04-24T02:17:05;9.70;99.90
52965;DHT22;42923;53.220;6.528;2023-04-24T02:19:31;9.60;99.90
52965;DHT22;42923;53.220;6.528;2023-04-24T02:21:56;9.60;99.90
52965;DHT22;42923;53.220;6.528;2023-04-24T02:24:22;9.60;99.90
52965;DHT22;42923;53.220;6.528;2023-04-24T02:26:48;9.60;99.90
52965;DHT22;42923;53.220;6.528;2023-04-24T02:29:14;9.70;99.90
52965;DHT22;42923;53.220;6.528;2023-04-24T02:31:40;9.70;99.90
52965;DHT22;42923;53.220;6.528;2023-04-24T02:34:06;9.70;99.90
52965;DHT22;42923;53.220;6.528;2023-04-24T02:36:32;9.70;99.90
52965;DHT22;42923;53.220;6.528;2023-04-24T02:38:57;9.60;99.90
52965;DHT22;42923;53.220;6.528;2023-04-24T02:41:23;9.60;99.90
52965;DHT22;42923;53.220;6.528;2023-04-24T02:43:49;9.70;99.90
52965;DHT22;42923;53.220;6.528;2023-04-24T02:46:15;9.70;99.90
52965;DHT22;42923;53.220;6.528;2023-04-24T02:48:40;9.70;99.90
52965;DHT22;42923;53.220;6.528;2023-04-24T02:51:06;9.70;99.90
52965;DHT22;42923;53.220;6.528;2023-04-24T02:53:32;9.70;99.90
52965;DHT22;42923;53.220;6.528;2023-04-24T02:55:58;9.70;99.90
52965;DHT22;42923;53.220;6.528;2023-04-24T02:58:24;9.70;99.90
52965;DHT22;42923;53.220;6.528;2023-04-24T03:00:53;9.70;99.90
52965;DHT22;42923;53.220;6.528;2023-04-24T03:03:19;9.70;99.90
52965;DHT22;42923;53.220;6.528;2023-04-24T03:05:45;9.80;99.90
52965;DHT22;42923;53.220;6.528;2023-04-24T03:08:11;9.90;99.90
52965;DHT22;42923;53.220;6.528;2023-04-24T03:10:37;9.80;99.90
52965;DHT22;42923;53.220;6.528;2023-04-24T03:13:02;9.80;99.90
52965;DHT22;42923;53.220;6.528;2023-04-24T03:15:28;9.80;99.90
52965;DHT22;42923;53.220;6.528;2023-04-24T03:17:54;9.90;99.90
52965;DHT22;42923;53.220;6.528;2023-04-24T03:20:20;10.00;99.90
52965;DHT22;42923;53.220;6.528;2023-04-24T03:22:46;9.90;99.90
52965;DHT22;42923;53.220;6.528;2023-04-24T03:25:12;9.90;99.90
52965;DHT22;42923;53.220;6.528;2023-04-24T03:27:38;9.90;99.90
52965;DHT22;42923;53.220;6.528;2023-04-24T03:30:30;9.90;99.90
52965;DHT22;42923;53.220;6.528;2023-04-24T03:32:59;9.90;99.90
52965;DHT22;42923;53.220;6.528;2023-04-24T03:35:29;9.90;99.90
52965;DHT22;42923;53.220;6.528;2023-04-24T03:37:57;9.90;99.90
52965;DHT22;42923;53.220;6.528;2023-04-24T03:40:54;10.00;99.90
52965;DHT22;42923;53.220;6.528;2023-04-24T03:43:37;10.00;99.90
52965;DHT22;42923;53.220;6.528;2023-04-24T03:46:05;10.00;99.90
52965;DHT22;42923;53.220;6.528;2023-04-24T03:48:34;9.90;99.90
52965;DHT22;42923;53.220;6.528;2023-04-24T03:51:01;10.00;99.90
52965;DHT22;42923;53.220;6.528;2023-04-24T03:53:28;10.00;99.90
52965;DHT22;42923;53.220;6.528;2023-04-24T03:55:55;10.00;99.90
52965;DHT22;42923;53.220;6.528;2023-04-24T03:58:21;10.00;99.90
52965;DHT22;42923;53.220;6.528;2023-04-24T04:00:47;10.00;99.90
52965;DHT22;42923;53.220;6.528;2023-04-24T04:03:36;10.00;99.90
52965;DHT22;42923;53.220;6.528;2023-04-24T04:06:01;9.90;99.90
52965;DHT22;42923;53.220;6.528;2023-04-24T04:08:27;10.00;99.90
52965;DHT22;42923;53.220;6.528;2023-04-24T04:10:54;9.90;99.90
52965;DHT22;42923;53.220;6.528;2023-04-24T04:13:20;9.90;99.90
52965;DHT22;42923;53.220;6.528;2023-04-24T04:15:46;9.90;99.90
52965;DHT22;42923;53.220;6.528;2023-04-24T04:18:12;9.90;99.90
52965;DHT22;42923;53.220;6.528;2023-04-24T04:20:38;9.90;99.90
52965;DHT22;42923;53.220;6.528;2023-04-24T04:23:04;9.90;99.90
52965;DHT22;42923;53.220;6.528;2023-04-24T04:25:42;9.90;99.90
52965;DHT22;42923;53.220;6.528;2023-04-24T04:28:08;9.90;99.90
52965;DHT22;42923;53.220;6.528;2023-04-24T04:30:34;9.90;99.90
52965;DHT22;42923;53.220;6.528;2023-04-24T04:33:03;9.90;99.90
52965;DHT22;42923;53.220;6.528;2023-04-24T04:35:29;9.90;99.90
52965;DHT22;42923;53.220;6.528;2023-04-24T04:37:55;9.90;99.90
52965;DHT22;42923;53.220;6.528;2023-04-24T04:40:47;9.90;99.90
52965;DHT22;42923;53.220;6.528;2023-04-24T04:43:15;9.80;99.90
52965;DHT22;42923;53.220;6.528;2023-04-24T04:45:47;9.80;99.90
52965;DHT22;42923;53.220;6.528;2023-04-24T04:48:34;9.80;99.90
52965;DHT22;42923;53.220;6.528;2023-04-24T04:51:02;9.80;99.90
52965;DHT22;42923;53.220;6.528;2023-04-24T04:53:28;9.80;99.90
52965;DHT22;42923;53.220;6.528;2023-04-24T04:55:54;9.80;99.90
52965;DHT22;42923;53.220;6.528;2023-04-24T04:58:23;9.80;99.90
52965;DHT22;42923;53.220;6.528;2023-04-24T05:00:54;9.80;99.90
52965;DHT22;42923;53.220;6.528;2023-04-24T05:03:28;9.80;99.90
52965;DHT22;42923;53.220;6.528;2023-04-24T05:05:59;9.80;99.90
52965;DHT22;42923;53.220;6.528;2023-04-24T05:08:26;9.80;99.90
52965;DHT22;42923;53.220;6.528;2023-04-24T05:10:52;9.80;99.90
52965;DHT22;42923;53.220;6.528;2023-04-24T05:13:18;9.80;99.90
52965;DHT22;42923;53.220;6.528;2023-04-24T05:15:44;9.80;99.90
52965;DHT22;42923;53.220;6.528;2023-04-24T05:18:09;9.90;99.90
52965;DHT22;42923;53.220;6.528;2023-04-24T05:20:36;9.80;99.90
52965;DHT22;42923;53.220;6.528;2023-04-24T05:23:02;9.80;99.90
52965;DHT22;42923;53.220;6.528;2023-04-24T05:25:29;9.90;99.90
52965;DHT22;42923;53.220;6.528;2023-04-24T05:28:02;9.80;99.90
52965;DHT22;42923;53.220;6.528;2023-04-24T05:30:28;9.90;99.90
52965;DHT22;42923;53.220;6.528;2023-04-24T05:32:54;9.90;99.90
52965;DHT22;42923;53.220;6.528;2023-04-24T05:35:20;9.90;99.90
52965;DHT22;42923;53.220;6.528;2023-04-24T05:37:45;9.90;99.90
52965;DHT22;42923;53.220;6.528;2023-04-24T05:40:12;9.90;99.90
52965;DHT22;42923;53.220;6.528;2023-04-24T05:42:38;10.00;99.90
52965;DHT22;42923;53.220;6.528;2023-04-24T05:45:04;10.00;99.90
52965;DHT22;42923;53.220;6.528;2023-04-24T05:47:30;10.00;99.90
52965;DHT22;42923;53.220;6.528;2023-04-24T05:49:56;10.00;99.90
52965;DHT22;42923;53.220;6.528;2023-04-24T05:52:22;9.90;99.90
52965;DHT22;42923;53.220;6.528;2023-04-24T05:54:50;9.90;99.90
52965;DHT22;42923;53.220;6.528;2023-04-24T05:57:20;9.90;99.90
52965;DHT22;42923;53.220;6.528;2023-04-24T06:00:07;9.90;99.90
52965;DHT22;42923;53.220;6.528;2023-04-24T06:02:39;9.80;99.90
52965;DHT22;42923;53.220;6.528;2023-04-24T06:05:07;9.80;99.90
52965;DHT22;42923;53.220;6.528;2023-04-24T06:07:33;9.80;99.90
52965;DHT22;42923;53.220;6.528;2023-04-24T06:10:03;9.80;99.90
52965;DHT22;42923;53.220;6.528;2023-04-24T06:12:34;9.70;99.90
52965;DHT22;42923;53.220;6.528;2023-04-24T06:15:06;9.80;99.90
52965;DHT22;42923;53.220;6.528;2023-04-24T06:17:51;9.70;99.90
52965;DHT22;42923;53.220;6.528;2023-04-24T06:20:18;9.70;99.90
52965;DHT22;42923;53.220;6.528;2023-04-24T06:22:43;9.80;99.90
52965;DHT22;42923;53.220;6.528;2023-04-24T06:25:10;9.80;99.90
52965;DHT22;42923;53.220;6.528;2023-04-24T06:27:36;9.80;99.90
52965;DHT22;42923;53.220;6.528;2023-04-24T06:30:02;9.80;99.90
52965;DHT22;42923;53.220;6.528;2023-04-24T06:32:28;9.80;99.90
52965;DHT22;42923;53.220;6.528;2023-04-24T06:34:53;9.90;99.90
52965;DHT22;42923;53.220;6.528;2023-04-24T06:37:20;9.90;99.90
52965;DHT22;42923;53.220;6.528;2023-04-24T06:39:46;9.90;99.90
52965;DHT22;42923;53.220;6.528;2023-04-24T06:42:12;9.90;99.90
52965;DHT22;42923;53.220;6.528;2023-04-24T06:44:37;9.90;99.90
52965;DHT22;42923;53.220;6.528;2023-04-24T06:47:10;9.90;99.90
52965;DHT22;42923;53.220;6.528;2023-04-24T06:49:36;9.90;99.90
52965;DHT22;42923;53.220;6.528;2023-04-24T06:52:03;9.90;99.90
52965;DHT22;42923;53.220;6.528;2023-04-24T06:54:30;9.80;99.90
52965;DHT22;42923;53.220;6.528;2023-04-24T06:56:56;9.90;99.90
52965;DHT22;42923;53.220;6.528;2023-04-24T06:59:23;9.80;99.90
52965;DHT22;42923;53.220;6.528;2023-04-24T07:01:49;9.80;99.90
52965;DHT22;42923;53.220;6.528;2023-04-24T07:04:17;9.80;99.90
52965;DHT22;42923;53.220;6.528;2023-04-24T07:06:43;9.90;99.90
52965;DHT22;42923;53.220;6.528;2023-04-24T07:09:09;9.90;99.90
52965;DHT22;42923;53.220;6.528;2023-04-24T07:11:35;9.90;99.90
52965;DHT22;42923;53.220;6.528;2023-04-24T07:14:03;9.90;99.90
52965;DHT22;42923;53.220;6.528;2023-04-24T07:16:29;9.90;99.90
52965;DHT22;42923;53.220;6.528;2023-04-24T07:18:55;9.90;99.90
52965;DHT22;42923;53.220;6.528;2023-04-24T07:21:21;9.90;99.90
52965;DHT22;42923;53.220;6.528;2023-04-24T07:23:46;9.90;99.90
52965;DHT22;42923;53.220;6.528;2023-04-24T07:26:12;9.80;99.90
52965;DHT22;42923;53.220;6.528;2023-04-24T07:28:40;9.80;99.90
52965;DHT22;42923;53.220;6.528;2023-04-24T07:31:06;9.80;99.90
52965;DHT22;42923;53.220;6.528;2023-04-24T07:33:32;9.80;99.90
52965;DHT22;42923;53.220;6.528;2023-04-24T07:35:58;9.80;99.90
52965;DHT22;42923;53.220;6.528;2023-04-24T07:38:24;9.80;99.90
52965;DHT22;42923;53.220;6.528;2023-04-24T07:40:51;9.70;99.90
52965;DHT22;42923;53.220;6.528;2023-04-24T07:43:17;9.70;99.90
52965;DHT22;42923;53.220;6.528;2023-04-24T07:45:43;9.70;99.90
52965;DHT22;42923;53.220;6.528;2023-04-24T07:48:09;9.70;99.90
52965;DHT22;42923;53.220;6.528;2023-04-24T07:50:35;9.70;99.90
52965;DHT22;42923;53.220;6.528;2023-04-24T07:53:02;9.60;99.90
52965;DHT22;42923;53.220;6.528;2023-04-24T07:55:28;9.60;99.90
52965;DHT22;42923;53.220;6.528;2023-04-24T07:57:53;9.60;99.90
52965;DHT22;42923;53.220;6.528;2023-04-24T08:00:19;9.60;99.90
52965;DHT22;42923;53.220;6.528;2023-04-24T08:02:45;9.60;99.90
52965;DHT22;42923;53.220;6.528;2023-04-24T08:05:11;9.60;99.90
52965;DHT22;42923;53.220;6.528;2023-04-24T08:07:38;9.50;99.90
52965;DHT22;42923;53.220;6.528;2023-04-24T08:10:04;9.50;99.90
52965;DHT22;42923;53.220;6.528;2023-04-24T08:12:30;9.50;99.90
52965;DHT22;42923;53.220;6.528;2023-04-24T08:14:56;9.40;99.90
52965;DHT22;42923;53.220;6.528;2023-04-24T08:17:21;9.40;99.90
52965;DHT22;42923;53.220;6.528;2023-04-24T08:19:47;9.40;99.90
52965;DHT22;42923;53.220;6.528;2023-04-24T08:22:17;9.40;99.90
52965;DHT22;42923;53.220;6.528;2023-04-24T08:24:42;9.40;99.90
52965;DHT22;42923;53.220;6.528;2023-04-24T08:27:09;9.30;99.90
52965;DHT22;42923;53.220;6.528;2023-04-24T08:29:36;9.30;99.90
52965;DHT22;42923;53.220;6.528;2023-04-24T08:32:02;9.30;99.90
52965;DHT22;42923;53.220;6.528;2023-04-24T08:34:28;9.30;99.90
52965;DHT22;42923;53.220;6.528;2023-04-24T08:36:53;9.30;99.90
52965;DHT22;42923;53.220;6.528;2023-04-24T08:39:19;9.30;99.90
52965;DHT22;42923;53.220;6.528;2023-04-24T08:41:45;9.30;99.90
52965;DHT22;42923;53.220;6.528;2023-04-24T08:44:13;9.20;99.90
52965;DHT22;42923;53.220;6.528;2023-04-24T08:46:42;9.20;99.90
52965;DHT22;42923;53.220;6.528;2023-04-24T08:49:08;9.10;99.90
52965;DHT22;42923;53.220;6.528;2023-04-24T08:51:36;9.10;99.90
52965;DHT22;42923;53.220;6.528;2023-04-24T08:54:03;9.10;99.90
52965;DHT22;42923;53.220;6.528;2023-04-24T08:56:30;9.00;99.90
52965;DHT22;42923;53.220;6.528;2023-04-24T08:58:58;9.00;99.90
52965;DHT22;42923;53.220;6.528;2023-04-24T09:01:25;9.00;99.90
52965;DHT22;42923;53.220;6.528;2023-04-24T09:03:51;9.00;99.90
52965;DHT22;42923;53.220;6.528;2023-04-24T09:06:18;8.90;99.90
52965;DHT22;42923;53.220;6.528;2023-04-24T09:08:45;8.90;99.90
52965;DHT22;42923;53.220;6.528;2023-04-24T09:11:11;8.80;99.90
52965;DHT22;42923;53.220;6.528;2023-04-24T09:13:37;8.80;99.90
52965;DHT22;42923;53.220;6.528;2023-04-24T09:16:03;8.70;99.90
52965;DHT22;42923;53.220;6.528;2023-04-24T09:18:29;8.80;99.90
52965;DHT22;42923;53.220;6.528;2023-04-24T09:21:03;8.80;99.90
52965;DHT22;42923;53.220;6.528;2023-04-24T09:23:30;8.80;99.90
52965;DHT22;42923;53.220;6.528;2023-04-24T09:25:57;8.80;99.90
52965;DHT22;42923;53.220;6.528;2023-04-24T09:28:30;8.90;99.90
52965;DHT22;42923;53.220;6.528;2023-04-24T09:31:13;8.90;99.90
52965;DHT22;42923;53.220;6.528;2023-04-24T09:33:40;9.00;99.90
52965;DHT22;42923;53.220;6.528;2023-04-24T09:36:06;9.00;99.90
52965;DHT22;42923;53.220;6.528;2023-04-24T09:38:37;9.10;99.90
52965;DHT22;42923;53.220;6.528;2023-04-24T09:41:05;9.40;99.90
52965;DHT22;42923;53.220;6.528;2023-04-24T09:43:32;9.00;99.90
52965;DHT22;42923;53.220;6.528;2023-04-24T09:45:59;9.00;99.90
52965;DHT22;42923;53.220;6.528;2023-04-24T09:48:35;8.90;99.90
52965;DHT22;42923;53.220;6.528;2023-04-24T09:51:04;8.90;99.90
52965;DHT22;42923;53.220;6.528;2023-04-24T09:53:32;8.90;99.90
52965;DHT22;42923;53.220;6.528;2023-04-24T09:56:11;8.90;99.90
52965;DHT22;42923;53.220;6.528;2023-04-24T09:58:38;9.00;99.90
52965;DHT22;42923;53.220;6.528;2023-04-24T10:01:05;9.10;99.90
52965;DHT22;42923;53.220;6.528;2023-04-24T10:03:34;9.20;99.90
52965;DHT22;42923;53.220;6.528;2023-04-24T10:06:01;9.30;99.90
52965;DHT22;42923;53.220;6.528;2023-04-24T10:08:33;9.50;99.90
52965;DHT22;42923;53.220;6.528;2023-04-24T10:11:00;9.50;99.90
52965;DHT22;42923;53.220;6.528;2023-04-24T10:13:26;9.70;99.90
52965;DHT22;42923;53.220;6.528;2023-04-24T10:15:53;9.80;99.90
52965;DHT22;42923;53.220;6.528;2023-04-24T10:18:20;10.00;99.90
52965;DHT22;42923;53.220;6.528;2023-04-24T10:20:47;10.00;99.90
52965;DHT22;42923;53.220;6.528;2023-04-24T10:23:13;10.00;99.90
52965;DHT22;42923;53.220;6.528;2023-04-24T10:25:39;10.10;99.90
52965;DHT22;42923;53.220;6.528;2023-04-24T10:28:05;10.10;99.90
52965;DHT22;42923;53.220;6.528;2023-04-24T10:30:33;10.10;99.90
52965;DHT22;42923;53.220;6.528;2023-04-24T10:33:04;10.20;99.90
52965;DHT22;42923;53.220;6.528;2023-04-24T10:35:35;10.40;99.90
52965;DHT22;42923;53.220;6.528;2023-04-24T10:38:10;10.40;99.90
52965;DHT22;42923;53.220;6.528;2023-04-24T10:40:37;10.40;99.90
52965;DHT22;42923;53.220;6.528;2023-04-24T10:43:04;10.50;99.90
52965;DHT22;42923;53.220;6.528;2023-04-24T10:45:32;10.60;99.90
52965;DHT22;42923;53.220;6.528;2023-04-24T10:48:05;10.60;99.90
52965;DHT22;42923;53.220;6.528;2023-04-24T10:50:45;10.60;99.90
52965;DHT22;42923;53.220;6.528;2023-04-24T10:53:22;10.40;99.90
52965;DHT22;42923;53.220;6.528;2023-04-24T10:58:23;10.40;99.90
52965;DHT22;42923;53.220;6.528;2023-04-24T11:00:57;10.40;99.90
52965;DHT22;42923;53.220;6.528;2023-04-24T11:03:29;10.40;99.90
52965;DHT22;42923;53.220;6.528;2023-04-24T11:06:05;10.40;99.90
52965;DHT22;42923;53.220;6.528;2023-04-24T11:08:40;10.40;99.90
52965;DHT22;42923;53.220;6.528;2023-04-24T11:11:08;10.30;99.90
52965;DHT22;42923;53.220;6.528;2023-04-24T11:16:32;10.20;99.90
52965;DHT22;42923;53.220;6.528;2023-04-24T11:19:08;10.10;99.90
52965;DHT22;42923;53.220;6.528;2023-04-24T11:24:32;10.20;99.90
52965;DHT22;42923;53.220;6.528;2023-04-24T11:27:06;10.20;99.90
52965;DHT22;42923;53.220;6.528;2023-04-24T11:32:33;10.40;99.90
52965;DHT22;42923;53.220;6.528;2023-04-24T11:35:08;10.40;99.90
52965;DHT22;42923;53.220;6.528;2023-04-24T11:37:37;10.30;99.90
52965;DHT22;42923;53.220;6.528;2023-04-24T11:40:05;10.20;99.90
52965;DHT22;42923;53.220;6.528;2023-04-24T11:42:38;10.20;99.90
52965;DHT22;42923;53.220;6.528;2023-04-24T11:45:16;10.20;99.90
52965;DHT22;42923;53.220;6.528;2023-04-24T11:47:43;10.20;99.90
52965;DHT22;42923;53.220;6.528;2023-04-24T11:50:12;10.30;99.90
52965;DHT22;42923;53.220;6.528;2023-04-24T11:52:39;10.40;99.90
52965;DHT22;42923;53.220;6.528;2023-04-24T11:57:46;10.40;99.90
52965;DHT22;42923;53.220;6.528;2023-04-24T12:00:19;10.40;99.90
52965;DHT22;42923;53.220;6.528;2023-04-24T12:02:46;10.40;99.90
52965;DHT22;42923;53.220;6.528;2023-04-24T12:05:23;10.40;99.90
52965;DHT22;42923;53.220;6.528;2023-04-24T12:07:49;10.30;99.90
52965;DHT22;42923;53.220;6.528;2023-04-24T12:10:21;10.20;99.90
52965;DHT22;42923;53.220;6.528;2023-04-24T12:12:47;10.10;99.90
52965;DHT22;42923;53.220;6.528;2023-04-24T12:15:12;10.00;99.90
52965;DHT22;42923;53.220;6.528;2023-04-24T12:17:41;10.00;99.90
52965;DHT22;42923;53.220;6.528;2023-04-24T12:20:08;10.10;99.90
52965;DHT22;42923;53.220;6.528;2023-04-24T12:25:11;10.40;99.90
52965;DHT22;42923;53.220;6.528;2023-04-24T12:27:37;10.50;99.90
52965;DHT22;42923;53.220;6.528;2023-04-24T12:30:04;10.70;99.90
52965;DHT22;42923;53.220;6.528;2023-04-24T12:32:31;10.80;99.90
52965;DHT22;42923;53.220;6.528;2023-04-24T12:34:57;11.00;99.90
52965;DHT22;42923;53.220;6.528;2023-04-24T12:37:32;11.10;99.90
52965;DHT22;42923;53.220;6.528;2023-04-24T12:42:29;11.30;99.90
52965;DHT22;42923;53.220;6.528;2023-04-24T12:44:57;11.20;99.90
52965;DHT22;42923;53.220;6.528;2023-04-24T12:47:24;11.20;99.90
52965;DHT22;42923;53.220;6.528;2023-04-24T12:49:50;10.90;99.90
52965;DHT22;42923;53.220;6.528;2023-04-24T12:52:18;10.90;99.90
52965;DHT22;42923;53.220;6.528;2023-04-24T12:54:45;10.80;99.90
52965;DHT22;42923;53.220;6.528;2023-04-24T12:57:11;10.70;99.90
52965;DHT22;42923;53.220;6.528;2023-04-24T12:59:37;10.60;99.90
52965;DHT22;42923;53.220;6.528;2023-04-24T13:02:05;10.60;99.90
52965;DHT22;42923;53.220;6.528;2023-04-24T13:04:31;10.40;99.90
52965;DHT22;42923;53.220;6.528;2023-04-24T13:06:57;10.20;99.90
52965;DHT22;42923;53.220;6.528;2023-04-24T13:09:23;10.10;99.90
52965;DHT22;42923;53.220;6.528;2023-04-24T13:11:49;10.00;99.90
52965;DHT22;42923;53.220;6.528;2023-04-24T13:14:15;9.90;99.90
52965;DHT22;42923;53.220;6.528;2023-04-24T13:16:41;9.80;99.90
52965;DHT22;42923;53.220;6.528;2023-04-24T13:19:07;9.70;99.90
52965;DHT22;42923;53.220;6.528;2023-04-24T13:21:32;9.60;99.90
52965;DHT22;42923;53.220;6.528;2023-04-24T13:23:58;9.50;99.90
52965;DHT22;42923;53.220;6.528;2023-04-24T13:26:24;9.40;99.90
52965;DHT22;42923;53.220;6.528;2023-04-24T13:28:50;9.40;99.90
52965;DHT22;42923;53.220;6.528;2023-04-24T13:31:16;9.40;99.90
52965;DHT22;42923;53.220;6.528;2023-04-24T13:33:42;9.40;99.90
52965;DHT22;42923;53.220;6.528;2023-04-24T13:36:08;9.50;99.90
52965;DHT22;42923;53.220;6.528;2023-04-24T13:38:34;9.60;99.90
52965;DHT22;42923;53.220;6.528;2023-04-24T13:41:00;9.70;99.90
52965;DHT22;42923;53.220;6.528;2023-04-24T13:43:25;9.90;99.90
52965;DHT22;42923;53.220;6.528;2023-04-24T13:45:51;10.00;99.90
52965;DHT22;42923;53.220;6.528;2023-04-24T13:48:17;10.10;99.90
52965;DHT22;42923;53.220;6.528;2023-04-24T13:50:43;10.20;99.90
52965;DHT22;42923;53.220;6.528;2023-04-24T13:53:10;10.10;99.90
52965;DHT22;42923;53.220;6.528;2023-04-24T13:55:35;10.20;99.90
52965;DHT22;42923;53.220;6.528;2023-04-24T13:58:02;10.00;99.90
52965;DHT22;42923;53.220;6.528;2023-04-24T14:00:28;10.00;99.90
52965;DHT22;42923;53.220;6.528;2023-04-24T14:02:54;10.00;99.90
52965;DHT22;42923;53.220;6.528;2023-04-24T14:05:20;9.90;99.90
52965;DHT22;42923;53.220;6.528;2023-04-24T14:07:47;9.80;99.90
52965;DHT22;42923;53.220;6.528;2023-04-24T14:10:13;9.70;99.90
52965;DHT22;42923;53.220;6.528;2023-04-24T14:12:38;9.70;99.90
52965;DHT22;42923;53.220;6.528;2023-04-24T14:15:05;9.50;99.90
52965;DHT22;42923;53.220;6.528;2023-04-24T14:17:31;9.50;99.90
52965;DHT22;42923;53.220;6.528;2023-04-24T14:19:57;9.40;99.90
52965;DHT22;42923;53.220;6.528;2023-04-24T14:22:25;9.40;99.90
52965;DHT22;42923;53.220;6.528;2023-04-24T14:24:51;9.40;99.90
52965;DHT22;42923;53.220;6.528;2023-04-24T14:27:16;9.30;99.90
52965;DHT22;42923;53.220;6.528;2023-04-24T14:29:42;9.20;99.90
52965;DHT22;42923;53.220;6.528;2023-04-24T14:32:08;9.10;99.90
52965;DHT22;42923;53.220;6.528;2023-04-24T14:34:34;9.20;99.90
52965;DHT22;42923;53.220;6.528;2023-04-24T14:37:00;9.10;99.90
52965;DHT22;42923;53.220;6.528;2023-04-24T14:39:26;9.10;99.90
52965;DHT22;42923;53.220;6.528;2023-04-24T14:41:51;9.10;99.90
52965;DHT22;42923;53.220;6.528;2023-04-24T14:44:17;9.20;99.90
52965;DHT22;42923;53.220;6.528;2023-04-24T14:46:43;9.20;99.90
52965;DHT22;42923;53.220;6.528;2023-04-24T14:49:09;9.30;99.90
52965;DHT22;42923;53.220;6.528;2023-04-24T14:51:36;9.40;99.90
52965;DHT22;42923;53.220;6.528;2023-04-24T14:54:01;9.40;99.90
52965;DHT22;42923;53.220;6.528;2023-04-24T14:56:28;9.50;99.90
52965;DHT22;42923;53.220;6.528;2023-04-24T14:58:55;9.50;99.90
52965;DHT22;42923;53.220;6.528;2023-04-24T15:01:21;9.40;99.90
52965;DHT22;42923;53.220;6.528;2023-04-24T15:03:46;9.40;99.90
52965;DHT22;42923;53.220;6.528;2023-04-24T15:06:12;9.30;99.90
52965;DHT22;42923;53.220;6.528;2023-04-24T15:08:38;9.20;99.90
52965;DHT22;42923;53.220;6.528;2023-04-24T15:11:04;9.10;99.90
52965;DHT22;42923;53.220;6.528;2023-04-24T15:13:29;9.10;99.90
52965;DHT22;42923;53.220;6.528;2023-04-24T15:15:55;9.20;99.90
52965;DHT22;42923;53.220;6.528;2023-04-24T15:18:21;9.20;99.90
52965;DHT22;42923;53.220;6.528;2023-04-24T15:20:47;9.10;99.90
52965;DHT22;42923;53.220;6.528;2023-04-24T15:23:12;9.10;99.90
52965;DHT22;42923;53.220;6.528;2023-04-24T15:25:38;9.10;99.90
52965;DHT22;42923;53.220;6.528;2023-04-24T15:28:04;9.10;99.90
52965;DHT22;42923;53.220;6.528;2023-04-24T15:30:30;9.10;99.90
52965;DHT22;42923;53.220;6.528;2023-04-24T15:32:56;9.10;99.90
52965;DHT22;42923;53.220;6.528;2023-04-24T15:35:22;9.20;99.90
52965;DHT22;42923;53.220;6.528;2023-04-24T15:37:48;9.20;99.90
52965;DHT22;42923;53.220;6.528;2023-04-24T15:40:14;9.30;99.90
52965;DHT22;42923;53.220;6.528;2023-04-24T15:42:42;9.30;99.90
52965;DHT22;42923;53.220;6.528;2023-04-24T15:45:09;9.30;99.90
52965;DHT22;42923;53.220;6.528;2023-04-24T15:47:34;9.40;99.90
52965;DHT22;42923;53.220;6.528;2023-04-24T15:50:02;9.30;99.90
52965;DHT22;42923;53.220;6.528;2023-04-24T15:52:28;9.30;99.90
52965;DHT22;42923;53.220;6.528;2023-04-24T15:54:54;9.30;99.90
52965;DHT22;42923;53.220;6.528;2023-04-24T15:57:20;9.20;99.90
52965;DHT22;42923;53.220;6.528;2023-04-24T15:59:46;9.10;99.90
52965;DHT22;42923;53.220;6.528;2023-04-24T16:02:12;9.00;99.90